Time;durP1;ratioP1;P1;durP2;ratioP2;P2;SDS_P1;SDS_P2;PMS_P1;PMS_P2;Temp;Humidity;BMP_temperature;BMP_pressure;BME280_temperature;BME280_humidity;BME280_pressure;Samples;Min_cycle;Max_cycle;Signal;HPM_P1;HPM_P2
2021/10/05 00:00:08;;;;;;;3.30;2.30;;;;;;;13.26;66.74;101479.34;6240352;28;20197;-52
2021/10/05 00:03:30;;;;;;;4.17;2.13;;;;;;;12.84;67.87;101488.44;6235011;28;20236;-47
2021/10/05 00:06:51;;;;;;;2.10;1.87;;;;;;;12.93;67.30;101491.84;6239636;28;20221;-54
2021/10/05 00:10:13;;;;;;;4.30;2.03;;;;;;;13.01;67.43;101489.16;6240942;28;20230;-52
2021/10/05 00:13:34;;;;;;;3.70;2.20;;;;;;;12.75;68.08;101489.34;6231559;28;20221;-51
2021/10/05 00:16:55;;;;;;;2.10;1.90;;;;;;;13.19;66.61;101478.53;6235621;28;20228;-53
2021/10/05 00:20:18;;;;;;;3.30;2.63;;;;;;;13.12;66.94;101486.44;6236424;28;20204;-54
2021/10/05 00:23:39;;;;;;;4.10;2.20;;;;;;;12.79;68.00;101489.34;6238361;28;20224;-52
2021/10/05 00:27:00;;;;;;;4.40;2.77;;;;;;;12.93;67.52;101477.88;6241544;28;20227;-52
2021/10/05 00:30:21;;;;;;;7.60;2.97;;;;;;;12.98;67.22;101474.34;6234101;28;20244;-54
2021/10/05 00:33:41;;;;;;;2.33;2.07;;;;;;;12.62;68.15;101475.53;6239077;28;20209;-48
2021/10/05 00:37:04;;;;;;;3.60;2.23;;;;;;;12.82;68.18;101464.06;6242298;28;20315;-49
2021/10/05 00:40:25;;;;;;;2.53;2.33;;;;;;;12.64;68.42;101462.44;6239545;28;20201;-48
2021/10/05 00:43:46;;;;;;;2.50;1.93;;;;;;;12.35;69.68;101464.38;6241542;28;20343;-49
2021/10/05 00:47:10;;;;;;;2.93;2.60;;;;;;;12.58;68.79;101466.84;6238399;28;20233;-51
2021/10/05 00:50:32;;;;;;;5.47;3.17;;;;;;;12.45;69.00;101465.19;6232360;28;20213;-49
2021/10/05 00:53:54;;;;;;;4.57;2.63;;;;;;;12.38;68.90;101474.78;6242687;28;20189;-54
2021/10/05 00:57:15;;;;;;;5.77;2.20;;;;;;;12.33;69.52;101473.06;6243562;28;20687;-52
2021/10/05 01:00:38;;;;;;;3.13;2.30;;;;;;;12.47;69.53;101463.44;6237448;28;20224;-49
2021/10/05 01:04:00;;;;;;;2.73;2.10;;;;;;;12.38;69.73;101461.72;6240379;28;20216;-51
2021/10/05 01:07:20;;;;;;;4.00;2.90;;;;;;;12.45;68.85;101446.03;6234859;28;20240;-51
2021/10/05 01:10:43;;;;;;;4.17;2.10;;;;;;;12.41;69.68;101439.97;6244428;28;20339;-53
2021/10/05 01:14:04;;;;;;;1.87;1.67;;;;;;;12.62;68.62;101436.34;6241036;28;20651;-50
2021/10/05 01:17:25;;;;;;;2.63;2.33;;;;;;;12.37;69.62;101439.13;6242656;28;20253;-50
2021/10/05 01:20:57;;;;;;;2.30;1.97;;;;;;;12.28;69.69;101428.72;6245245;28;20314;-49
2021/10/05 01:24:22;;;;;;;2.27;2.07;;;;;;;12.11;70.22;101425.34;6243211;28;20232;-51
2021/10/05 01:27:46;;;;;;;2.90;2.60;;;;;;;12.27;69.90;101426.13;6241806;28;20221;-49
2021/10/05 01:31:06;;;;;;;2.27;2.03;;;;;;;12.28;69.52;101413.06;6243453;28;20555;-49
2021/10/05 01:34:28;;;;;;;2.70;2.40;;;;;;;12.52;69.12;101411.13;6244363;28;20193;-50
2021/10/05 01:37:50;;;;;;;2.50;2.30;;;;;;;12.67;68.80;101400.56;6242790;28;20224;-48
2021/10/05 01:41:11;;;;;;;2.20;2.00;;;;;;;12.35;69.32;101400.84;6244345;28;20232;-48
2021/10/05 01:44:34;;;;;;;3.73;2.70;;;;;;;12.54;68.96;101394.59;6244609;28;20209;-47
2021/10/05 01:47:55;;;;;;;2.00;1.83;;;;;;;12.38;69.11;101399.03;6243390;28;20233;-50
2021/10/05 01:51:16;;;;;;;2.37;2.20;;;;;;;12.58;68.78;101390.19;6240789;28;20236;-49
2021/10/05 01:54:39;;;;;;;4.40;2.27;;;;;;;11.91;70.94;101395.00;6242755;28;20204;-52
2021/10/05 01:58:00;;;;;;;2.33;2.17;;;;;;;12.12;70.75;101385.31;6242771;28;20228;-49
2021/10/05 02:01:20;;;;;;;1.93;1.67;;;;;;;12.28;69.99;101388.69;6241621;28;20516;-46
2021/10/05 02:04:44;;;;;;;2.13;1.80;;;;;;;12.55;68.98;101388.47;6239618;28;20221;-49
2021/10/05 02:08:05;;;;;;;3.13;2.20;;;;;;;12.38;69.16;101388.59;6243975;28;20240;-53
2021/10/05 02:11:28;;;;;;;2.90;2.13;;;;;;;12.55;68.65;101379.78;6241905;28;20224;-50
2021/10/05 02:14:49;;;;;;;2.80;2.53;;;;;;;12.18;69.60;101382.66;6243695;28;20221;-51
2021/10/05 02:18:09;;;;;;;4.20;2.30;;;;;;;11.82;71.29;101372.41;6241615;28;20302;-47
2021/10/05 02:21:31;;;;;;;3.00;2.10;;;;;;;11.92;71.08;101373.25;6239982;28;20674;-47
2021/10/05 02:24:51;;;;;;;3.73;2.97;;;;;;;12.48;69.12;101362.41;6242741;28;20217;-48
2021/10/05 02:28:14;;;;;;;4.03;2.20;;;;;;;12.12;70.04;101360.06;6243428;28;20233;-53
2021/10/05 02:31:35;;;;;;;3.00;2.10;;;;;;;12.08;70.22;101350.53;6239474;28;20894;-51
2021/10/05 02:34:56;;;;;;;2.97;1.77;;;;;;;12.11;70.25;101352.25;6242576;28;20185;-52
2021/10/05 02:38:17;;;;;;;2.67;1.90;;;;;;;12.24;69.50;101355.66;6244775;28;20532;-49
2021/10/05 02:41:38;;;;;;;2.87;1.83;;;;;;;12.11;69.86;101357.47;6237949;28;20505;-53
2021/10/05 02:45:00;;;;;;;4.40;2.70;;;;;;;12.04;70.58;101345.31;6242142;28;20224;-50
2021/10/05 02:48:21;;;;;;;4.23;2.30;;;;;;;12.34;69.38;101336.41;6241874;28;20343;-48
2021/10/05 02:51:42;;;;;;;3.87;2.63;;;;;;;12.41;69.13;101327.66;6238020;28;20224;-51
2021/10/05 02:55:04;;;;;;;7.50;3.83;;;;;;;12.67;68.44;101332.63;6244962;28;20582;-51
2021/10/05 02:58:25;;;;;;;4.10;2.30;;;;;;;12.12;70.02;101317.44;6241892;28;20339;-52
2021/10/05 03:01:47;;;;;;;8.67;4.60;;;;;;;12.16;69.41;101319.16;6237881;28;20336;-51
2021/10/05 03:05:09;;;;;;;6.03;4.47;;;;;;;12.29;69.48;101312.06;6241941;28;20614;-49
2021/10/05 03:08:30;;;;;;;5.33;3.33;;;;;;;12.25;70.22;101315.59;6241648;28;20212;-51
2021/10/05 03:11:51;;;;;;;3.50;2.40;;;;;;;12.04;70.22;101314.88;6240551;28;20237;-49
2021/10/05 03:15:14;;;;;;;5.03;2.33;;;;;;;11.71;71.42;101306.38;6238525;28;20276;-52
2021/10/05 03:18:38;;;;;;;4.33;3.23;;;;;;;12.25;69.92;101302.53;6233489;28;20284;-51
2021/10/05 03:21:59;;;;;;;4.57;3.33;;;;;;;12.11;70.39;101290.44;6241191;28;20236;-52
2021/10/05 03:25:20;;;;;;;6.77;2.93;;;;;;;12.00;70.61;101298.38;6243700;28;20327;-50
2021/10/05 03:28:41;;;;;;;7.07;3.60;;;;;;;11.98;70.29;101289.69;6242621;28;20218;-47
2021/10/05 03:32:02;;;;;;;2.70;2.50;;;;;;;11.86;71.08;101281.91;6232441;28;20228;-48
2021/10/05 03:35:25;;;;;;;6.67;4.07;;;;;;;12.23;70.23;101273.81;6238431;28;20193;-52
2021/10/05 03:38:46;;;;;;;5.97;3.97;;;;;;;12.14;70.15;101268.69;6241334;28;20217;-49
2021/10/05 03:42:07;;;;;;;3.77;3.47;;;;;;;11.99;70.42;101275.75;6237841;28;20228;-47
2021/10/05 03:45:28;;;;;;;9.40;5.10;;;;;;;12.17;69.82;101263.41;6240541;28;20299;-52
2021/10/05 03:48:49;;;;;;;4.97;3.47;;;;;;;12.12;70.17;101260.88;6242346;28;20216;-51
2021/10/05 03:52:11;;;;;;;8.37;4.00;;;;;;;12.09;69.88;101254.78;6238440;28;20315;-51
2021/10/05 03:55:32;;;;;;;5.63;4.47;;;;;;;12.00;70.57;101256.59;6238907;28;20275;-51
2021/10/05 03:58:53;;;;;;;6.13;4.30;;;;;;;11.94;71.01;101258.38;6239744;28;20309;-52
2021/10/05 04:02:14;;;;;;;6.70;4.47;;;;;;;11.83;71.06;101258.44;6235918;28;20228;-51
2021/10/05 04:05:35;;;;;;;6.50;4.47;;;;;;;11.84;71.67;101260.16;6238813;28;20303;-53
2021/10/05 04:08:57;;;;;;;5.10;4.33;;;;;;;12.10;70.46;101241.72;6241681;28;20311;-47
2021/10/05 04:12:18;;;;;;;7.20;4.87;;;;;;;12.42;69.59;101235.34;6240481;28;20256;-51
2021/10/05 04:15:39;;;;;;;6.53;4.67;;;;;;;12.31;69.70;101240.69;6234925;28;20221;-51
2021/10/05 04:19:00;;;;;;;7.93;5.50;;;;;;;12.52;69.22;101234.38;6236281;28;20204;-53
2021/10/05 04:22:21;;;;;;;7.83;4.97;;;;;;;11.95;70.73;101226.19;6239790;28;20232;-50
2021/10/05 04:25:43;;;;;;;8.90;4.83;;;;;;;11.97;70.29;101229.66;6238845;28;20220;-48
2021/10/05 04:29:04;;;;;;;7.47;4.93;;;;;;;12.24;70.12;101228.56;6240522;28;20193;-51
2021/10/05 04:32:25;;;;;;;6.40;4.40;;;;;;;12.26;70.23;101211.13;6235167;28;20236;-48
2021/10/05 04:35:46;;;;;;;6.33;4.67;;;;;;;12.33;69.75;101218.03;6239935;28;20201;-53
2021/10/05 04:39:07;;;;;;;6.63;4.63;;;;;;;12.13;70.55;101209.50;6240431;28;20189;-52
2021/10/05 04:42:29;;;;;;;5.40;4.90;;;;;;;11.95;71.36;101214.00;6238548;28;20551;-49
2021/10/05 04:45:50;;;;;;;6.23;4.60;;;;;;;12.02;71.48;101207.88;6238010;28;21021;-50
2021/10/05 04:49:11;;;;;;;5.67;4.07;;;;;;;12.20;70.59;101205.97;6243265;28;20197;-49
2021/10/05 04:52:32;;;;;;;5.80;5.00;;;;;;;12.11;70.75;101206.91;6237915;28;20229;-49
2021/10/05 04:55:53;;;;;;;7.50;4.60;;;;;;;12.19;70.63;101206.84;6235624;28;20320;-49
2021/10/05 04:59:17;;;;;;;5.57;4.57;;;;;;;12.03;71.36;101198.28;6241376;28;20220;-49
2021/10/05 05:02:38;;;;;;;6.63;4.57;;;;;;;12.27;70.15;101197.19;6231993;28;20311;-53
2021/10/05 05:05:59;;;;;;;5.83;5.17;;;;;;;12.02;70.84;101186.97;6229945;28;20414;-52
2021/10/05 05:09:20;;;;;;;6.17;5.30;;;;;;;12.19;70.73;101183.34;6230736;28;20768;-53
2021/10/05 05:12:41;;;;;;;5.17;4.77;;;;;;;11.91;71.87;101183.59;6228302;28;20228;-48
2021/10/05 05:16:03;;;;;;;5.50;5.00;;;;;;;12.11;71.15;101180.78;6224995;28;20417;-50
2021/10/05 05:19:24;;;;;;;9.90;5.07;;;;;;;11.94;71.81;101180.09;6234011;28;20194;-50
2021/10/05 05:22:45;;;;;;;6.63;5.03;;;;;;;12.12;72.31;101171.25;6230448;28;20819;-48
2021/10/05 05:26:07;;;;;;;9.53;5.87;;;;;;;11.90;72.21;101175.78;6232734;28;20236;-48
2021/10/05 05:29:28;;;;;;;7.60;5.40;;;;;;;12.17;71.72;101170.31;6233965;28;20221;-53
2021/10/05 05:32:50;;;;;;;5.90;4.80;;;;;;;12.32;70.93;101174.50;6231882;28;20759;-53
2021/10/05 05:36:11;;;;;;;5.77;5.27;;;;;;;12.68;69.65;101176.69;6229884;28;20237;-49
2021/10/05 05:39:32;;;;;;;7.80;5.53;;;;;;;12.62;69.34;101172.44;6230570;28;20571;-50
2021/10/05 05:42:52;;;;;;;8.67;5.50;;;;;;;12.41;70.25;101171.78;6232351;28;20574;-48
2021/10/05 05:46:13;;;;;;;7.30;5.40;;;;;;;12.70;69.22;101170.59;6231544;28;20240;-45
2021/10/05 05:49:36;;;;;;;7.53;5.30;;;;;;;12.45;69.87;101166.53;6231878;28;20201;-53
2021/10/05 05:52:56;;;;;;;5.37;4.87;;;;;;;12.41;70.41;101160.50;6233524;28;20233;-51
2021/10/05 05:56:17;;;;;;;6.77;5.30;;;;;;;12.73;69.48;101151.38;6232505;28;20296;-51
2021/10/05 05:59:39;;;;;;;9.30;5.23;;;;;;;12.83;68.71;101154.75;6234941;28;20236;-49
2021/10/05 06:03:00;;;;;;;5.87;5.27;;;;;;;13.10;68.25;101154.38;6231986;28;20236;-52
2021/10/05 06:06:22;;;;;;;5.77;5.17;;;;;;;13.09;67.83;101157.88;6236487;28;20693;-54
2021/10/05 06:09:43;;;;;;;6.77;4.93;;;;;;;13.18;68.06;101151.66;6243136;28;20197;-52
2021/10/05 06:13:04;;;;;;;6.47;5.07;;;;;;;13.26;68.00;101154.16;6234586;28;20315;-53
2021/10/05 06:16:25;;;;;;;7.33;5.27;;;;;;;13.38;67.68;101149.63;6239845;28;20228;-50
2021/10/05 06:19:46;;;;;;;8.20;5.27;;;;;;;13.45;67.22;101150.41;6239852;28;20219;-50
2021/10/05 06:23:08;;;;;;;10.00;6.43;;;;;;;13.43;67.03;101152.16;6235000;28;20785;-53
2021/10/05 06:26:29;;;;;;;7.63;6.27;;;;;;;13.39;67.21;101151.34;6236421;28;20567;-52
2021/10/05 06:29:50;;;;;;;10.20;5.63;;;;;;;13.25;67.50;101161.13;6243699;28;20185;-54
2021/10/05 06:33:11;;;;;;;7.17;5.27;;;;;;;13.31;67.16;101158.47;6240416;28;20232;-53
2021/10/05 06:36:32;;;;;;;6.00;5.40;;;;;;;13.43;66.79;101161.78;6240633;28;20228;-52
2021/10/05 06:39:54;;;;;;;7.80;7.00;;;;;;;13.33;67.23;101166.28;6245516;28;20201;-50
2021/10/05 06:43:15;;;;;;;6.67;5.60;;;;;;;13.53;66.68;101159.00;6240209;28;20232;-52
2021/10/05 06:46:38;;;;;;;8.33;6.37;;;;;;;13.43;67.06;101152.16;6241748;28;20295;-52
2021/10/05 06:50:00;;;;;;;7.30;5.97;;;;;;;13.56;66.88;101153.72;6243318;28;20306;-51
2021/10/05 06:53:21;;;;;;;7.57;5.27;;;;;;;13.60;66.72;101141.44;6238024;28;20228;-52
2021/10/05 06:56:43;;;;;;;9.10;6.43;;;;;;;13.63;66.78;101145.75;6238921;28;20226;-52
2021/10/05 07:00:11;;;;;;;6.33;5.47;;;;;;;13.82;66.09;101139.31;6239967;28;20244;-47
2021/10/05 07:03:32;;;;;;;11.13;6.53;;;;;;;13.74;66.31;101133.34;6240882;28;21913;-51
2021/10/05 07:06:53;;;;;;;9.97;7.23;;;;;;;13.68;66.42;101134.31;6243565;28;20225;-52
2021/10/05 07:10:17;;;;;;;8.00;5.47;;;;;;;13.82;65.91;101128.84;6244457;28;20205;-55
2021/10/05 07:13:39;;;;;;;8.57;5.90;;;;;;;13.63;66.83;101128.31;6235062;28;20348;-52
2021/10/05 07:17:01;;;;;;;6.10;5.50;;;;;;;13.82;66.17;101126.22;6243745;28;20244;-54
2021/10/05 07:20:22;;;;;;;5.83;5.20;;;;;;;13.76;66.02;101134.19;6242498;28;20209;-51
2021/10/05 07:23:43;;;;;;;7.07;4.97;;;;;;;13.79;66.29;101124.53;6235670;28;20216;-53
2021/10/05 07:27:04;;;;;;;6.47;5.17;;;;;;;13.77;66.49;101121.09;6239095;28;20256;-52
2021/10/05 07:30:28;;;;;;;7.53;6.03;;;;;;;13.72;66.26;101120.28;6240708;28;20470;-51
2021/10/05 07:33:48;;;;;;;7.60;5.77;;;;;;;13.36;67.51;101114.78;6232947;28;20240;-49
2021/10/05 07:37:10;;;;;;;6.63;5.73;;;;;;;13.19;68.39;101106.31;6242611;28;20625;-52
2021/10/05 07:40:32;;;;;;;7.00;6.30;;;;;;;13.38;67.94;101101.69;6229850;28;20613;-49
2021/10/05 07:43:52;;;;;;;6.53;5.43;;;;;;;13.57;67.13;101103.13;6240107;28;20193;-53
2021/10/05 07:47:15;;;;;;;6.73;5.57;;;;;;;13.26;68.79;101096.59;6236024;28;20220;-50
2021/10/05 07:50:36;;;;;;;7.90;5.63;;;;;;;13.68;67.53;101089.84;6234346;28;20244;-53
2021/10/05 07:53:57;;;;;;;10.23;6.60;;;;;;;13.74;67.18;101079.25;6242031;28;20194;-50
2021/10/05 07:57:18;;;;;;;7.53;5.20;;;;;;;13.11;69.46;101084.66;6236836;28;20229;-51
2021/10/05 08:00:39;;;;;;;5.40;4.87;;;;;;;13.38;68.80;101075.53;6239765;28;20208;-51
2021/10/05 08:04:01;;;;;;;8.20;4.70;;;;;;;13.38;69.17;101075.53;6240702;28;20193;-51
2021/10/05 08:07:26;;;;;;;7.20;5.30;;;;;;;13.37;69.40;101071.19;6235301;28;20514;-50
2021/10/05 08:10:47;;;;;;;5.40;4.43;;;;;;;13.13;69.94;101069.81;6238554;28;20201;-50
2021/10/05 08:14:08;;;;;;;6.03;5.07;;;;;;;13.17;70.21;101072.34;6235516;28;20189;-54
2021/10/05 08:17:30;;;;;;;6.53;5.03;;;;;;;13.31;69.52;101058.22;6237063;28;20225;-46
2021/10/05 08:20:52;;;;;;;7.20;5.23;;;;;;;13.11;70.14;101064.59;6235827;28;20232;-51
2021/10/05 08:24:13;;;;;;;5.10;4.60;;;;;;;13.25;69.67;101051.28;6238987;28;20208;-50
2021/10/05 08:27:34;;;;;;;7.20;4.83;;;;;;;13.45;69.53;101039.66;6237306;28;20638;-48
2021/10/05 08:30:55;;;;;;;6.73;5.33;;;;;;;13.66;68.55;101038.41;6234623;28;20314;-48
2021/10/05 08:34:17;;;;;;;6.27;5.70;;;;;;;13.27;70.31;101035.59;6241504;28;20205;-49
2021/10/05 08:37:40;;;;;;;6.03;5.43;;;;;;;13.58;68.89;101031.56;6234207;28;20611;-54
2021/10/05 08:41:04;;;;;;;7.63;5.43;;;;;;;13.50;69.23;101028.22;6238147;28;20239;-51
2021/10/05 08:44:25;;;;;;;5.57;5.17;;;;;;;13.32;70.07;101028.56;6240255;28;20220;-50
2021/10/05 08:47:46;;;;;;;8.60;5.97;;;;;;;13.52;69.53;101015.13;6236504;28;20684;-50
2021/10/05 08:51:07;;;;;;;6.13;5.60;;;;;;;13.28;70.41;101016.38;6237970;28;20311;-52
2021/10/05 08:54:29;;;;;;;8.87;6.93;;;;;;;13.21;70.79;101002.53;6238777;28;20200;-51
2021/10/05 08:57:50;;;;;;;7.97;7.17;;;;;;;13.38;70.49;101004.91;6241427;28;20232;-50
2021/10/05 09:01:14;;;;;;;8.73;5.80;;;;;;;13.23;71.13;101007.75;6238360;28;20232;-52
2021/10/05 09:04:35;;;;;;;6.57;5.83;;;;;;;13.35;71.33;100986.63;6240121;28;20232;-49
2021/10/05 09:07:57;;;;;;;6.23;5.40;;;;;;;13.51;70.94;100993.34;6233538;28;20320;-50
2021/10/05 09:11:24;;;;;;;6.97;6.47;;;;;;;13.31;71.92;100990.22;6242612;28;20622;-54
2021/10/05 09:14:48;;;;;;;7.30;6.60;;;;;;;13.45;71.71;100988.19;6242227;28;20224;-55
2021/10/05 09:18:10;;;;;;;15.00;6.83;;;;;;;13.34;71.97;100979.69;6237109;28;20505;-50
2021/10/05 09:21:33;;;;;;;10.43;7.63;;;;;;;13.29;72.60;100982.34;6238309;28;20220;-51
2021/10/05 09:24:57;;;;;;;6.77;6.17;;;;;;;13.36;72.34;100977.91;6239722;28;20202;-51
2021/10/05 09:28:23;;;;;;;9.60;5.40;;;;;;;13.66;71.40;100976.47;6237007;28;20236;-52
2021/10/05 09:31:56;;;;;;;10.17;5.00;;;;;;;13.66;70.95;100970.38;6242262;28;20236;-47
2021/10/05 09:35:17;;;;;;;7.63;5.67;;;;;;;13.57;72.06;100979.25;6240811;28;20500;-51
2021/10/05 09:38:38;;;;;;;7.53;5.77;;;;;;;13.83;71.24;100970.06;6244103;28;20213;-46
2021/10/05 09:41:58;;;;;;;6.97;5.57;;;;;;;13.36;72.39;100968.31;6239679;28;20229;-51
2021/10/05 09:45:24;;;;;;;6.63;5.87;;;;;;;13.68;71.58;100965.97;6241306;28;20217;-50
2021/10/05 09:48:46;;;;;;;5.50;4.93;;;;;;;13.45;73.02;100964.66;6243196;28;20224;-48
2021/10/05 09:52:08;;;;;;;6.40;5.83;;;;;;;13.69;71.83;100959.88;6237851;28;20619;-52
2021/10/05 09:55:31;;;;;;;6.40;5.80;;;;;;;13.38;73.21;100955.22;6246582;28;20567;-52
2021/10/05 09:58:52;;;;;;;5.83;5.03;;;;;;;13.28;73.39;100964.06;6241563;28;20213;-51
2021/10/05 10:02:18;;;;;;;5.33;4.83;;;;;;;13.66;72.54;100959.91;6241134;28;20323;-52
2021/10/05 10:05:40;;;;;;;6.67;6.00;;;;;;;13.17;73.16;100954.66;6240796;28;20209;-47
2021/10/05 10:09:05;;;;;;;5.70;4.67;;;;;;;13.72;72.63;100957.16;6239827;28;20217;-51
2021/10/05 10:12:26;;;;;;;5.97;5.37;;;;;;;13.35;73.95;100955.25;6242790;28;20256;-51
2021/10/05 10:15:48;;;;;;;6.00;5.40;;;;;;;13.42;73.24;100956.03;6239304;28;20229;-52
2021/10/05 10:19:10;;;;;;;6.03;5.10;;;;;;;13.77;72.40;100947.47;6241996;28;20197;-54
2021/10/05 10:22:42;;;;;;;5.50;5.00;;;;;;;13.87;72.36;100941.16;6240667;28;20276;-52
2021/10/05 10:26:05;;;;;;;6.57;5.93;;;;;;;13.98;72.04;100938.31;6246248;28;20228;-53
2021/10/05 10:29:28;;;;;;;6.80;5.93;;;;;;;14.02;71.46;100928.66;6237589;28;20566;-51
2021/10/05 10:32:52;;;;;;;7.13;6.13;;;;;;;13.40;73.62;100929.88;6245529;28;20233;-51
2021/10/05 10:36:15;;;;;;;6.50;5.90;;;;;;;13.73;73.05;100927.50;6243235;28;20233;-47
2021/10/05 10:39:38;;;;;;;4.97;4.60;;;;;;;13.49;74.17;100920.97;6237349;28;20193;-51
2021/10/05 10:43:10;;;;;;;5.53;4.67;;;;;;;13.58;74.17;100911.19;6241761;28;20511;-52
2021/10/05 10:46:34;;;;;;;4.37;4.07;;;;;;;13.54;74.35;100913.91;6242714;28;20255;-54
2021/10/05 10:49:57;;;;;;;5.40;5.00;;;;;;;13.81;74.11;100904.63;6240892;28;20301;-50
2021/10/05 10:53:35;;;;;;;4.63;4.23;;;;;;;14.25;72.83;100901.94;6244743;28;20319;-49
2021/10/05 10:57:00;;;;;;;3.63;3.40;;;;;;;14.16;72.75;100892.53;6234082;28;20225;-49
2021/10/05 11:00:23;;;;;;;4.23;3.63;;;;;;;14.09;73.01;100875.22;6236933;28;20196;-49
2021/10/05 11:03:44;;;;;;;4.13;3.83;;;;;;;14.38;72.37;100878.06;6241132;28;20303;-53
2021/10/05 11:07:06;;;;;;;5.20;3.77;;;;;;;14.28;72.52;100868.66;6240256;28;20232;-50
2021/10/05 11:10:31;;;;;;;4.37;4.03;;;;;;;14.43;72.55;100867.44;6240843;28;20205;-50
2021/10/05 11:13:52;;;;;;;4.13;3.73;;;;;;;13.92;73.11;100876.47;6242774;28;20319;-52
2021/10/05 11:17:13;;;;;;;5.10;4.60;;;;;;;14.33;72.65;100864.19;6234731;28;20311;-49
2021/10/05 11:20:36;;;;;;;2.93;2.73;;;;;;;14.05;73.49;100863.09;6242502;28;20685;-49
2021/10/05 11:23:57;;;;;;;5.77;3.90;;;;;;;14.14;73.26;100862.91;6243154;28;20508;-50
2021/10/05 11:27:21;;;;;;;4.27;3.87;;;;;;;14.18;73.00;100851.47;6241902;28;20344;-49
2021/10/05 11:30:50;;;;;;;4.50;3.20;;;;;;;14.38;72.76;100851.84;6245732;28;20300;-50
2021/10/05 11:34:11;;;;;;;3.83;3.53;;;;;;;14.44;72.66;100847.34;6233393;28;20204;-49
2021/10/05 11:37:34;;;;;;;4.33;3.73;;;;;;;14.59;72.24;100851.38;6238994;28;20240;-52
2021/10/05 11:40:57;;;;;;;3.57;3.27;;;;;;;14.46;72.35;100838.56;6241684;28;20232;-54
2021/10/05 11:44:22;;;;;;;4.10;3.80;;;;;;;14.33;72.70;100838.00;6240090;28;20220;-49
2021/10/05 11:47:43;;;;;;;3.63;2.87;;;;;;;14.49;71.93;100833.22;6240359;28;20228;-50
2021/10/05 11:51:04;;;;;;;2.77;2.57;;;;;;;14.53;71.77;100834.88;6242133;28;20224;-52
2021/10/05 11:54:27;;;;;;;3.60;3.30;;;;;;;14.28;73.28;100829.38;6244052;28;20482;-50
2021/10/05 11:57:48;;;;;;;3.23;3.03;;;;;;;14.59;72.42;100817.31;6241836;28;20228;-50
2021/10/05 12:01:16;;;;;;;3.80;3.50;;;;;;;15.09;70.74;100791.50;6241712;28;20533;-51
2021/10/05 12:04:39;;;;;;;3.40;3.07;;;;;;;15.35;69.68;100796.88;6241898;28;20621;-50
2021/10/05 12:08:04;;;;;;;3.03;2.77;;;;;;;15.58;69.29;100799.72;6240746;28;20229;-52
2021/10/05 12:11:38;;;;;;;3.23;3.03;;;;;;;15.39;69.60;100786.25;6238374;28;20519;-52
2021/10/05 12:15:01;;;;;;;3.47;3.17;;;;;;;15.56;69.14;100782.22;6235742;28;20299;-50
2021/10/05 12:18:23;;;;;;;3.07;2.87;;;;;;;15.04;70.38;100778.50;6234797;28;20240;-49
2021/10/05 12:21:51;;;;;;;2.97;2.77;;;;;;;14.84;71.30;100791.31;6225129;28;20224;-52
2021/10/05 12:25:14;;;;;;;3.20;3.00;;;;;;;14.85;71.18;100787.78;6240275;28;20197;-52
2021/10/05 12:28:36;;;;;;;4.93;3.53;;;;;;;14.53;71.90;100786.84;6240532;28;20359;-48
2021/10/05 12:32:00;;;;;;;3.03;2.73;;;;;;;14.73;72.02;100779.38;6239525;28;20233;-51
2021/10/05 12:35:27;;;;;;;6.33;3.60;;;;;;;14.45;73.05;100770.47;6241178;28;20487;-49
2021/10/05 12:38:48;;;;;;;3.17;2.97;;;;;;;14.74;71.88;100767.97;6241793;28;20216;-49
2021/10/05 12:42:09;;;;;;;3.50;3.30;;;;;;;14.63;72.23;100764.78;6242465;28;20724;-55
2021/10/05 12:45:30;;;;;;;3.90;3.60;;;;;;;14.09;74.51;100760.88;6243654;28;20201;-52
2021/10/05 12:48:57;;;;;;;3.57;3.20;;;;;;;14.48;72.99;100754.66;6242469;28;20782;-53
2021/10/05 12:52:19;;;;;;;5.37;4.23;;;;;;;14.17;74.23;100760.69;6233269;28;20236;-49
2021/10/05 12:55:40;;;;;;;4.33;4.00;;;;;;;14.01;75.55;100765.44;6237892;28;20197;-48
2021/10/05 12:59:01;;;;;;;3.27;3.07;;;;;;;14.16;74.32;100751.97;6247059;28;20197;-51
2021/10/05 13:02:21;;;;;;;3.43;3.07;;;;;;;14.43;73.31;100743.47;6236933;28;20912;-51
2021/10/05 13:05:44;;;;;;;4.60;4.20;;;;;;;14.49;74.09;100732.81;6235834;28;20598;-50
2021/10/05 13:09:09;;;;;;;4.20;3.83;;;;;;;14.61;73.27;100727.25;6243146;28;20629;-47
2021/10/05 13:12:30;;;;;;;3.70;3.50;;;;;;;15.03;72.07;100708.63;6243918;28;20220;-51
2021/10/05 13:15:51;;;;;;;5.00;4.70;;;;;;;15.02;71.58;100706.03;6241781;28;20737;-50
2021/10/05 13:19:12;;;;;;;5.00;4.60;;;;;;;15.26;71.45;100704.47;6243996;28;20259;-53
2021/10/05 13:22:33;;;;;;;4.70;4.30;;;;;;;15.43;70.55;100699.56;6240533;28;20638;-49
2021/10/05 13:25:55;;;;;;;3.57;3.37;;;;;;;15.54;69.53;100694.81;6240159;28;20232;-48
2021/10/05 13:29:16;;;;;;;4.17;3.87;;;;;;;15.03;71.36;100697.28;6246478;28;20511;-50
2021/10/05 13:32:39;;;;;;;4.00;3.70;;;;;;;14.68;72.85;100697.38;6241822;28;20625;-52
2021/10/05 13:36:00;;;;;;;3.23;2.93;;;;;;;14.59;73.99;100705.47;6233440;28;20240;-50
2021/10/05 13:39:21;;;;;;;4.03;3.60;;;;;;;14.34;74.47;100703.47;6244904;28;20209;-54
2021/10/05 13:42:44;;;;;;;3.70;3.40;;;;;;;14.45;73.71;100710.22;6243055;28;20818;-52
2021/10/05 13:46:05;;;;;;;2.53;2.33;;;;;;;14.34;73.83;100703.47;6237222;28;20232;-51
2021/10/05 13:49:26;;;;;;;2.70;2.50;;;;;;;14.67;72.85;100679.06;6240613;28;20220;-50
2021/10/05 13:52:47;;;;;;;2.47;2.37;;;;;;;14.72;72.34;100685.03;6245019;28;20232;-50
2021/10/05 13:56:08;;;;;;;2.87;2.67;;;;;;;14.92;72.41;100676.59;6240105;28;20236;-52
2021/10/05 13:59:31;;;;;;;2.43;2.33;;;;;;;15.04;71.75;100668.34;6241822;28;20189;-49
2021/10/05 14:02:51;;;;;;;2.60;2.50;;;;;;;15.32;70.81;100667.53;6235783;28;20232;-52
2021/10/05 14:06:13;;;;;;;2.60;2.40;;;;;;;14.89;71.96;100674.94;6242075;28;20224;-52
2021/10/05 14:09:34;;;;;;;3.40;2.10;;;;;;;14.87;72.34;100670.63;6237970;28;20377;-50
2021/10/05 14:12:54;;;;;;;2.40;1.93;;;;;;;14.58;72.47;100669.72;6239121;28;20232;-49
2021/10/05 14:16:17;;;;;;;3.87;1.80;;;;;;;14.55;72.04;100656.66;6236163;28;20237;-50
2021/10/05 14:19:38;;;;;;;2.83;2.37;;;;;;;14.57;72.64;100652.25;6241509;28;20291;-54
2021/10/05 14:22:59;;;;;;;3.87;2.57;;;;;;;14.64;72.57;100656.44;6236093;28;20703;-50
2021/10/05 14:26:20;;;;;;;2.87;2.63;;;;;;;14.67;72.17;100648.47;6240847;28;20228;-52
2021/10/05 14:29:41;;;;;;;3.03;2.50;;;;;;;14.90;72.04;100636.47;6241788;28;20291;-49
2021/10/05 14:33:05;;;;;;;2.17;2.07;;;;;;;14.94;71.60;100635.47;6235868;28;20236;-52
2021/10/05 14:36:25;;;;;;;2.47;2.27;;;;;;;15.19;71.10;100630.31;6237999;28;20236;-52
2021/10/05 14:39:46;;;;;;;1.83;1.73;;;;;;;15.76;69.08;100625.91;6239713;28;20222;-52
2021/10/05 14:43:07;;;;;;;2.03;1.90;;;;;;;15.72;68.62;100624.25;6241851;28;20270;-54
2021/10/05 14:46:28;;;;;;;2.80;1.93;;;;;;;15.52;69.06;100623.13;6240965;28;20242;-54
2021/10/05 14:49:50;;;;;;;3.67;2.33;;;;;;;15.62;69.64;100628.94;6238775;28;20212;-54
2021/10/05 14:53:11;;;;;;;2.73;2.53;;;;;;;15.40;69.59;100627.94;6237618;28;20258;-49
2021/10/05 14:56:32;;;;;;;2.83;2.63;;;;;;;15.01;70.96;100623.03;6241367;28;20248;-52
2021/10/05 14:59:54;;;;;;;2.70;2.50;;;;;;;15.00;71.54;100618.69;6240754;28;20217;-52
2021/10/05 15:03:15;;;;;;;4.10;2.50;;;;;;;15.50;70.56;100617.06;6234047;28;20240;-52
2021/10/05 15:06:37;;;;;;;2.43;2.33;;;;;;;15.82;68.95;100614.31;6233809;28;20232;-48
2021/10/05 15:09:58;;;;;;;2.60;2.20;;;;;;;15.69;69.37;100611.25;6228785;28;20296;-47
2021/10/05 15:13:19;;;;;;;3.10;2.80;;;;;;;15.00;71.03;100598.56;6236428;28;20228;-49
2021/10/05 15:16:40;;;;;;;3.33;3.03;;;;;;;15.75;69.96;100592.69;6230839;28;20253;-52
2021/10/05 15:20:02;;;;;;;3.50;3.30;;;;;;;15.66;69.73;100583.31;6233815;28;20225;-50
2021/10/05 15:23:25;;;;;;;3.03;2.83;;;;;;;16.00;69.71;100571.69;6237610;28;20240;-52
2021/10/05 15:26:46;;;;;;;3.13;2.83;;;;;;;16.25;68.64;100571.66;6232748;28;20237;-53
2021/10/05 15:30:09;;;;;;;2.93;2.73;;;;;;;16.43;67.40;100569.25;6240204;28;20212;-52
2021/10/05 15:33:30;;;;;;;3.73;2.87;;;;;;;16.28;67.52;100566.28;6232318;28;20225;-50
2021/10/05 15:36:51;;;;;;;2.37;2.07;;;;;;;15.94;68.27;100561.41;6239468;28;20296;-49